sensor_id;sensor_type;location;lat;lon;timestamp;temperature;humidity
13375;DHT22;6756;51.354;15.754;2023-05-10T00:02:44;7.50;1.00
13375;DHT22;6756;51.354;15.754;2023-05-10T00:06:44;7.40;1.00
13375;DHT22;6756;51.354;15.754;2023-05-10T00:10:45;7.30;1.00
13375;DHT22;6756;51.354;15.754;2023-05-10T00:14:47;7.30;1.00
13375;DHT22;6756;51.354;15.754;2023-05-10T00:18:48;7.30;1.00
13375;DHT22;6756;51.354;15.754;2023-05-10T00:22:49;7.20;1.00
13375;DHT22;6756;51.354;15.754;2023-05-10T00:26:50;7.10;1.00
13375;DHT22;6756;51.354;15.754;2023-05-10T00:30:51;7.10;1.00
13375;DHT22;6756;51.354;15.754;2023-05-10T00:34:54;6.90;1.00
13375;DHT22;6756;51.354;15.754;2023-05-10T00:38:55;6.90;31.30
13375;DHT22;6756;51.354;15.754;2023-05-10T00:42:57;6.80;58.40
13375;DHT22;6756;51.354;15.754;2023-05-10T00:46:59;6.80;93.90
13375;DHT22;6756;51.354;15.754;2023-05-10T00:51:01;6.70;99.90
13375;DHT22;6756;51.354;15.754;2023-05-10T00:55:03;6.70;99.90
13375;DHT22;6756;51.354;15.754;2023-05-10T00:59:05;6.70;99.90
13375;DHT22;6756;51.354;15.754;2023-05-10T01:03:10;6.70;99.90
13375;DHT22;6756;51.354;15.754;2023-05-10T01:07:12;6.60;99.90
13375;DHT22;6756;51.354;15.754;2023-05-10T01:11:13;6.60;99.90
13375;DHT22;6756;51.354;15.754;2023-05-10T01:15:15;6.50;99.90
13375;DHT22;6756;51.354;15.754;2023-05-10T01:19:26;6.50;99.90
13375;DHT22;6756;51.354;15.754;2023-05-10T01:23:34;6.50;99.90
13375;DHT22;6756;51.354;15.754;2023-05-10T01:28:00;6.40;99.90
13375;DHT22;6756;51.354;15.754;2023-05-10T01:32:16;6.40;99.90
13375;DHT22;6756;51.354;15.754;2023-05-10T01:36:26;6.40;99.90
13375;DHT22;6756;51.354;15.754;2023-05-10T01:40:52;6.40;99.90
13375;DHT22;6756;51.354;15.754;2023-05-10T01:45:11;6.30;99.90
13375;DHT22;6756;51.354;15.754;2023-05-10T01:49:24;6.20;99.90
13375;DHT22;6756;51.354;15.754;2023-05-10T01:53:27;6.20;99.90
13375;DHT22;6756;51.354;15.754;2023-05-10T01:57:34;6.10;99.90
13375;DHT22;6756;51.354;15.754;2023-05-10T02:01:43;6.10;99.90
13375;DHT22;6756;51.354;15.754;2023-05-10T02:05:48;6.00;99.90
13375;DHT22;6756;51.354;15.754;2023-05-10T02:09:55;6.00;1.00
13375;DHT22;6756;51.354;15.754;2023-05-10T02:13:59;6.00;1.00
13375;DHT22;6756;51.354;15.754;2023-05-10T02:18:02;6.00;1.00
13375;DHT22;6756;51.354;15.754;2023-05-10T02:22:05;6.00;99.90
13375;DHT22;6756;51.354;15.754;2023-05-10T02:26:07;6.00;99.90
13375;DHT22;6756;51.354;15.754;2023-05-10T02:30:10;6.00;99.90
13375;DHT22;6756;51.354;15.754;2023-05-10T02:34:11;6.10;99.90
13375;DHT22;6756;51.354;15.754;2023-05-10T02:38:14;6.00;99.90
13375;DHT22;6756;51.354;15.754;2023-05-10T02:42:18;6.00;99.90
13375;DHT22;6756;51.354;15.754;2023-05-10T02:46:20;6.00;99.90
13375;DHT22;6756;51.354;15.754;2023-05-10T02:50:28;6.00;99.90
13375;DHT22;6756;51.354;15.754;2023-05-10T02:54:52;6.00;99.90
13375;DHT22;6756;51.354;15.754;2023-05-10T02:58:55;5.90;1.00
13375;DHT22;6756;51.354;15.754;2023-05-10T03:02:56;6.00;1.00
13375;DHT22;6756;51.354;15.754;2023-05-10T03:06:57;6.00;99.90
13375;DHT22;6756;51.354;15.754;2023-05-10T03:15:42;6.10;99.90
13375;DHT22;6756;51.354;15.754;2023-05-10T03:19:54;6.10;99.90
13375;DHT22;6756;51.354;15.754;2023-05-10T03:28:06;6.20;99.90
13375;DHT22;6756;51.354;15.754;2023-05-10T03:32:10;6.20;99.90
13375;DHT22;6756;51.354;15.754;2023-05-10T03:36:11;6.30;99.90
13375;DHT22;6756;51.354;15.754;2023-05-10T03:40:12;6.40;99.90
13375;DHT22;6756;51.354;15.754;2023-05-10T03:44:13;6.40;99.90
13375;DHT22;6756;51.354;15.754;2023-05-10T03:48:14;6.50;99.90
13375;DHT22;6756;51.354;15.754;2023-05-10T03:52:15;6.60;99.90
13375;DHT22;6756;51.354;15.754;2023-05-10T03:56:16;6.90;45.40
13375;DHT22;6756;51.354;15.754;2023-05-10T04:00:17;7.80;1.00
13375;DHT22;6756;51.354;15.754;2023-05-10T04:04:18;8.70;99.90
13375;DHT22;6756;51.354;15.754;2023-05-10T04:08:21;9.40;99.90
13375;DHT22;6756;51.354;15.754;2023-05-10T04:12:22;10.00;99.90
13375;DHT22;6756;51.354;15.754;2023-05-10T04:16:23;10.60;99.90
13375;DHT22;6756;51.354;15.754;2023-05-10T04:20:24;11.00;64.80
13375;DHT22;6756;51.354;15.754;2023-05-10T04:24:26;11.30;30.20
13375;DHT22;6756;51.354;15.754;2023-05-10T04:28:30;11.40;21.00
13375;DHT22;6756;51.354;15.754;2023-05-10T04:32:32;11.60;13.60
13375;DHT22;6756;51.354;15.754;2023-05-10T04:36:33;11.70;9.90
13375;DHT22;6756;51.354;15.754;2023-05-10T04:40:38;11.90;1.00
13375;DHT22;6756;51.354;15.754;2023-05-10T04:44:40;12.10;1.00
13375;DHT22;6756;51.354;15.754;2023-05-10T04:48:42;12.20;1.00
13375;DHT22;6756;51.354;15.754;2023-05-10T04:52:43;12.30;1.00
13375;DHT22;6756;51.354;15.754;2023-05-10T04:56:44;12.30;1.00
13375;DHT22;6756;51.354;15.754;2023-05-10T05:00:46;12.30;1.00
13375;DHT22;6756;51.354;15.754;2023-05-10T05:04:47;11.70;1.00
13375;DHT22;6756;51.354;15.754;2023-05-10T05:08:47;11.40;2.50
13375;DHT22;6756;51.354;15.754;2023-05-10T05:12:50;11.10;15.60
13375;DHT22;6756;51.354;15.754;2023-05-10T05:16:54;11.00;34.50
13375;DHT22;6756;51.354;15.754;2023-05-10T05:20:55;10.90;54.20
13375;DHT22;6756;51.354;15.754;2023-05-10T05:24:57;10.90;68.90
13375;DHT22;6756;51.354;15.754;2023-05-10T05:29:03;11.00;51.10
13375;DHT22;6756;51.354;15.754;2023-05-10T05:33:04;11.00;48.30
13375;DHT22;6756;51.354;15.754;2023-05-10T05:37:04;11.00;61.40
13375;DHT22;6756;51.354;15.754;2023-05-10T05:41:08;11.00;72.20
13375;DHT22;6756;51.354;15.754;2023-05-10T05:45:09;11.00;65.20
13375;DHT22;6756;51.354;15.754;2023-05-10T05:49:13;11.10;76.70
13375;DHT22;6756;51.354;15.754;2023-05-10T05:53:14;11.20;63.00
13375;DHT22;6756;51.354;15.754;2023-05-10T05:57:15;11.40;52.20
13375;DHT22;6756;51.354;15.754;2023-05-10T06:01:16;11.60;44.80
13375;DHT22;6756;51.354;15.754;2023-05-10T06:05:18;11.70;35.00
13375;DHT22;6756;51.354;15.754;2023-05-10T06:09:18;11.90;34.00
13375;DHT22;6756;51.354;15.754;2023-05-10T06:13:19;12.00;22.90
13375;DHT22;6756;51.354;15.754;2023-05-10T06:17:20;12.10;29.70
13375;DHT22;6756;51.354;15.754;2023-05-10T06:21:22;12.30;25.40
13375;DHT22;6756;51.354;15.754;2023-05-10T06:25:23;12.40;11.20
13375;DHT22;6756;51.354;15.754;2023-05-10T06:29:24;12.60;17.80
13375;DHT22;6756;51.354;15.754;2023-05-10T06:33:25;12.80;13.50
13375;DHT22;6756;51.354;15.754;2023-05-10T06:37:26;12.90;1.00
13375;DHT22;6756;51.354;15.754;2023-05-10T06:41:30;13.20;1.00
13375;DHT22;6756;51.354;15.754;2023-05-10T06:45:31;13.40;1.00
13375;DHT22;6756;51.354;15.754;2023-05-10T06:49:32;13.60;1.00
13375;DHT22;6756;51.354;15.754;2023-05-10T06:53:33;13.80;1.00
13375;DHT22;6756;51.354;15.754;2023-05-10T06:57:34;14.00;1.00
13375;DHT22;6756;51.354;15.754;2023-05-10T07:01:38;14.20;1.00
13375;DHT22;6756;51.354;15.754;2023-05-10T07:05:39;14.40;1.00
13375;DHT22;6756;51.354;15.754;2023-05-10T07:09:41;14.50;1.00
13375;DHT22;6756;51.354;15.754;2023-05-10T07:13:42;14.60;1.00
13375;DHT22;6756;51.354;15.754;2023-05-10T07:17:44;14.80;1.00
13375;DHT22;6756;51.354;15.754;2023-05-10T07:21:46;15.00;1.00
13375;DHT22;6756;51.354;15.754;2023-05-10T07:25:51;15.10;1.00
13375;DHT22;6756;51.354;15.754;2023-05-10T07:29:54;15.30;1.00
13375;DHT22;6756;51.354;15.754;2023-05-10T07:33:57;15.50;1.00
13375;DHT22;6756;51.354;15.754;2023-05-10T07:38:01;15.60;1.00
13375;DHT22;6756;51.354;15.754;2023-05-10T07:42:05;15.80;1.00
13375;DHT22;6756;51.354;15.754;2023-05-10T07:46:06;15.90;1.00
13375;DHT22;6756;51.354;15.754;2023-05-10T07:50:08;15.90;1.00
13375;DHT22;6756;51.354;15.754;2023-05-10T07:54:09;16.00;1.00
13375;DHT22;6756;51.354;15.754;2023-05-10T07:58:13;16.10;1.00
13375;DHT22;6756;51.354;15.754;2023-05-10T08:02:17;16.40;1.00
13375;DHT22;6756;51.354;15.754;2023-05-10T08:06:18;16.40;1.00
13375;DHT22;6756;51.354;15.754;2023-05-10T08:10:20;16.50;1.00
13375;DHT22;6756;51.354;15.754;2023-05-10T08:14:21;16.70;1.00
13375;DHT22;6756;51.354;15.754;2023-05-10T08:18:22;16.80;1.00
13375;DHT22;6756;51.354;15.754;2023-05-10T08:22:23;16.90;1.00
13375;DHT22;6756;51.354;15.754;2023-05-10T08:26:24;17.00;1.00
13375;DHT22;6756;51.354;15.754;2023-05-10T08:30:25;17.20;1.00
13375;DHT22;6756;51.354;15.754;2023-05-10T08:34:27;17.30;1.00
13375;DHT22;6756;51.354;15.754;2023-05-10T08:38:28;17.30;1.00
13375;DHT22;6756;51.354;15.754;2023-05-10T08:42:30;17.50;1.00
13375;DHT22;6756;51.354;15.754;2023-05-10T08:46:34;17.50;1.00
13375;DHT22;6756;51.354;15.754;2023-05-10T08:50:44;17.40;1.00
13375;DHT22;6756;51.354;15.754;2023-05-10T08:54:49;17.50;1.00
13375;DHT22;6756;51.354;15.754;2023-05-10T08:58:50;17.60;1.00
13375;DHT22;6756;51.354;15.754;2023-05-10T09:02:55;17.70;1.00
13375;DHT22;6756;51.354;15.754;2023-05-10T09:07:00;17.80;1.00
13375;DHT22;6756;51.354;15.754;2023-05-10T09:11:02;17.90;1.00
13375;DHT22;6756;51.354;15.754;2023-05-10T09:15:04;17.90;1.00
13375;DHT22;6756;51.354;15.754;2023-05-10T09:19:06;17.90;1.00
13375;DHT22;6756;51.354;15.754;2023-05-10T09:23:08;17.90;1.00
13375;DHT22;6756;51.354;15.754;2023-05-10T09:27:10;18.00;1.00
13375;DHT22;6756;51.354;15.754;2023-05-10T09:31:11;18.10;1.00
13375;DHT22;6756;51.354;15.754;2023-05-10T09:35:37;18.30;1.00
13375;DHT22;6756;51.354;15.754;2023-05-10T09:39:38;18.40;1.00
13375;DHT22;6756;51.354;15.754;2023-05-10T09:43:42;18.50;1.00
13375;DHT22;6756;51.354;15.754;2023-05-10T09:47:46;18.70;1.00
13375;DHT22;6756;51.354;15.754;2023-05-10T09:52:06;18.80;1.00
13375;DHT22;6756;51.354;15.754;2023-05-10T09:56:07;18.90;1.00
13375;DHT22;6756;51.354;15.754;2023-05-10T10:00:19;19.00;1.00
13375;DHT22;6756;51.354;15.754;2023-05-10T10:04:21;19.10;1.00
13375;DHT22;6756;51.354;15.754;2023-05-10T10:08:22;19.20;1.00
13375;DHT22;6756;51.354;15.754;2023-05-10T10:12:23;19.30;1.00
13375;DHT22;6756;51.354;15.754;2023-05-10T10:16:25;19.50;1.00
13375;DHT22;6756;51.354;15.754;2023-05-10T10:20:28;19.70;1.00
13375;DHT22;6756;51.354;15.754;2023-05-10T10:24:29;19.80;1.00
13375;DHT22;6756;51.354;15.754;2023-05-10T10:37:12;20.20;1.00
13375;DHT22;6756;51.354;15.754;2023-05-10T10:41:35;20.30;1.00
13375;DHT22;6756;51.354;15.754;2023-05-10T10:45:39;20.30;1.00
13375;DHT22;6756;51.354;15.754;2023-05-10T10:53:42;20.90;1.00
13375;DHT22;6756;51.354;15.754;2023-05-10T10:57:56;21.20;1.00
13375;DHT22;6756;51.354;15.754;2023-05-10T11:02:06;21.40;1.00
13375;DHT22;6756;51.354;15.754;2023-05-10T11:06:17;21.20;1.00
13375;DHT22;6756;51.354;15.754;2023-05-10T11:10:29;21.10;1.00
13375;DHT22;6756;51.354;15.754;2023-05-10T11:14:31;21.00;1.00
13375;DHT22;6756;51.354;15.754;2023-05-10T11:18:39;21.00;1.00
13375;DHT22;6756;51.354;15.754;2023-05-10T11:22:51;21.00;1.00
13375;DHT22;6756;51.354;15.754;2023-05-10T11:26:57;21.10;1.00
13375;DHT22;6756;51.354;15.754;2023-05-10T11:30:58;21.00;1.00
13375;DHT22;6756;51.354;15.754;2023-05-10T11:34:59;20.90;1.00
13375;DHT22;6756;51.354;15.754;2023-05-10T11:39:04;21.20;1.00
13375;DHT22;6756;51.354;15.754;2023-05-10T11:43:05;21.40;1.00
13375;DHT22;6756;51.354;15.754;2023-05-10T11:47:09;21.70;1.00
13375;DHT22;6756;51.354;15.754;2023-05-10T11:51:11;21.90;1.00
13375;DHT22;6756;51.354;15.754;2023-05-10T11:55:15;22.00;1.00
13375;DHT22;6756;51.354;15.754;2023-05-10T11:59:16;22.10;1.00
13375;DHT22;6756;51.354;15.754;2023-05-10T12:03:17;21.80;1.00
13375;DHT22;6756;51.354;15.754;2023-05-10T12:07:18;21.30;1.00
13375;DHT22;6756;51.354;15.754;2023-05-10T12:11:20;21.40;1.00
13375;DHT22;6756;51.354;15.754;2023-05-10T12:15:25;21.80;1.00
13375;DHT22;6756;51.354;15.754;2023-05-10T12:19:28;21.80;1.00
13375;DHT22;6756;51.354;15.754;2023-05-10T12:23:29;21.70;1.00
13375;DHT22;6756;51.354;15.754;2023-05-10T12:27:33;21.50;1.00
13375;DHT22;6756;51.354;15.754;2023-05-10T12:32:00;21.60;1.00
13375;DHT22;6756;51.354;15.754;2023-05-10T12:36:04;21.80;1.00
13375;DHT22;6756;51.354;15.754;2023-05-10T12:40:12;22.20;1.00
13375;DHT22;6756;51.354;15.754;2023-05-10T12:44:14;22.60;1.00
13375;DHT22;6756;51.354;15.754;2023-05-10T12:48:15;22.80;1.00
13375;DHT22;6756;51.354;15.754;2023-05-10T12:52:16;22.90;1.00
13375;DHT22;6756;51.354;15.754;2023-05-10T12:56:17;22.80;1.00
13375;DHT22;6756;51.354;15.754;2023-05-10T13:00:22;22.60;1.00
13375;DHT22;6756;51.354;15.754;2023-05-10T13:04:23;22.50;1.00
13375;DHT22;6756;51.354;15.754;2023-05-10T13:08:24;22.50;1.00
13375;DHT22;6756;51.354;15.754;2023-05-10T13:12:25;22.70;1.00
13375;DHT22;6756;51.354;15.754;2023-05-10T13:16:26;22.90;1.00
13375;DHT22;6756;51.354;15.754;2023-05-10T13:20:27;22.80;1.00
13375;DHT22;6756;51.354;15.754;2023-05-10T13:24:31;22.70;1.00
13375;DHT22;6756;51.354;15.754;2023-05-10T13:28:32;22.80;1.00
13375;DHT22;6756;51.354;15.754;2023-05-10T13:32:33;22.70;1.00
13375;DHT22;6756;51.354;15.754;2023-05-10T13:36:37;22.50;1.00
13375;DHT22;6756;51.354;15.754;2023-05-10T13:40:38;22.70;1.00
13375;DHT22;6756;51.354;15.754;2023-05-10T13:44:39;22.90;1.00
13375;DHT22;6756;51.354;15.754;2023-05-10T13:48:47;23.00;1.00
13375;DHT22;6756;51.354;15.754;2023-05-10T13:52:57;22.80;1.00
13375;DHT22;6756;51.354;15.754;2023-05-10T13:56:58;22.80;1.00
13375;DHT22;6756;51.354;15.754;2023-05-10T14:01:08;22.70;1.00
13375;DHT22;6756;51.354;15.754;2023-05-10T14:05:09;22.70;1.00
13375;DHT22;6756;51.354;15.754;2023-05-10T14:09:10;22.70;1.00
13375;DHT22;6756;51.354;15.754;2023-05-10T14:13:13;22.70;1.00
13375;DHT22;6756;51.354;15.754;2023-05-10T14:17:14;22.60;1.00
13375;DHT22;6756;51.354;15.754;2023-05-10T14:21:15;22.50;1.00
13375;DHT22;6756;51.354;15.754;2023-05-10T14:25:16;22.50;1.00
13375;DHT22;6756;51.354;15.754;2023-05-10T14:29:17;22.40;1.00
13375;DHT22;6756;51.354;15.754;2023-05-10T14:33:18;22.20;1.00
13375;DHT22;6756;51.354;15.754;2023-05-10T14:37:19;22.10;1.00
13375;DHT22;6756;51.354;15.754;2023-05-10T14:41:20;22.00;1.00
13375;DHT22;6756;51.354;15.754;2023-05-10T14:45:21;21.80;1.00
13375;DHT22;6756;51.354;15.754;2023-05-10T14:49:23;21.70;1.00
13375;DHT22;6756;51.354;15.754;2023-05-10T14:53:26;21.70;1.00
13375;DHT22;6756;51.354;15.754;2023-05-10T14:57:27;21.50;1.00
13375;DHT22;6756;51.354;15.754;2023-05-10T15:01:30;21.40;1.00
13375;DHT22;6756;51.354;15.754;2023-05-10T15:05:33;21.50;1.00
13375;DHT22;6756;51.354;15.754;2023-05-10T15:09:34;21.50;1.00
13375;DHT22;6756;51.354;15.754;2023-05-10T15:13:37;21.50;1.00
13375;DHT22;6756;51.354;15.754;2023-05-10T15:17:39;21.70;1.00
13375;DHT22;6756;51.354;15.754;2023-05-10T15:21:39;21.60;1.00
13375;DHT22;6756;51.354;15.754;2023-05-10T15:25:43;21.40;1.00
13375;DHT22;6756;51.354;15.754;2023-05-10T15:29:44;21.20;1.00
13375;DHT22;6756;51.354;15.754;2023-05-10T15:33:48;21.00;1.00
13375;DHT22;6756;51.354;15.754;2023-05-10T15:37:49;21.00;1.00
13375;DHT22;6756;51.354;15.754;2023-05-10T15:42:00;20.90;1.00
13375;DHT22;6756;51.354;15.754;2023-05-10T15:46:03;20.80;1.00
13375;DHT22;6756;51.354;15.754;2023-05-10T15:50:06;20.80;1.00
13375;DHT22;6756;51.354;15.754;2023-05-10T15:54:14;20.80;1.00
13375;DHT22;6756;51.354;15.754;2023-05-10T15:58:21;20.90;1.00
13375;DHT22;6756;51.354;15.754;2023-05-10T16:02:22;20.80;1.00
13375;DHT22;6756;51.354;15.754;2023-05-10T16:06:26;20.80;1.00
13375;DHT22;6756;51.354;15.754;2023-05-10T16:10:30;20.70;1.00
13375;DHT22;6756;51.354;15.754;2023-05-10T16:14:31;20.60;1.00
13375;DHT22;6756;51.354;15.754;2023-05-10T16:18:59;20.50;1.00
13375;DHT22;6756;51.354;15.754;2023-05-10T16:23:05;20.50;1.00
13375;DHT22;6756;51.354;15.754;2023-05-10T16:27:09;20.40;1.00
13375;DHT22;6756;51.354;15.754;2023-05-10T16:31:15;20.40;1.00
13375;DHT22;6756;51.354;15.754;2023-05-10T16:35:21;20.30;1.00
13375;DHT22;6756;51.354;15.754;2023-05-10T16:39:25;20.30;1.00
13375;DHT22;6756;51.354;15.754;2023-05-10T16:43:26;20.20;1.00
13375;DHT22;6756;51.354;15.754;2023-05-10T16:47:27;20.20;1.00
13375;DHT22;6756;51.354;15.754;2023-05-10T16:51:28;20.10;1.00
13375;DHT22;6756;51.354;15.754;2023-05-10T16:55:29;20.00;1.00
13375;DHT22;6756;51.354;15.754;2023-05-10T16:59:42;19.90;1.00
13375;DHT22;6756;51.354;15.754;2023-05-10T17:03:43;19.90;1.00
13375;DHT22;6756;51.354;15.754;2023-05-10T17:07:44;19.80;1.00
13375;DHT22;6756;51.354;15.754;2023-05-10T17:11:45;19.70;1.00
13375;DHT22;6756;51.354;15.754;2023-05-10T17:15:46;19.60;1.00
13375;DHT22;6756;51.354;15.754;2023-05-10T17:19:47;19.50;1.00
13375;DHT22;6756;51.354;15.754;2023-05-10T17:23:48;19.50;1.00
13375;DHT22;6756;51.354;15.754;2023-05-10T17:27:49;19.80;1.00
13375;DHT22;6756;51.354;15.754;2023-05-10T17:31:50;20.40;1.00
13375;DHT22;6756;51.354;15.754;2023-05-10T17:35:51;20.90;1.00
13375;DHT22;6756;51.354;15.754;2023-05-10T17:39:58;21.20;1.00
13375;DHT22;6756;51.354;15.754;2023-05-10T17:43:59;21.60;1.00
13375;DHT22;6756;51.354;15.754;2023-05-10T17:48:03;21.70;1.00
13375;DHT22;6756;51.354;15.754;2023-05-10T17:52:04;21.50;1.00
13375;DHT22;6756;51.354;15.754;2023-05-10T17:56:05;21.20;1.00
13375;DHT22;6756;51.354;15.754;2023-05-10T18:00:06;21.00;1.00
13375;DHT22;6756;51.354;15.754;2023-05-10T18:04:08;20.60;1.00
13375;DHT22;6756;51.354;15.754;2023-05-10T18:08:09;19.70;1.00
13375;DHT22;6756;51.354;15.754;2023-05-10T18:12:10;19.00;1.00
13375;DHT22;6756;51.354;15.754;2023-05-10T18:16:11;18.30;1.00
13375;DHT22;6756;51.354;15.754;2023-05-10T18:20:12;17.70;1.00
13375;DHT22;6756;51.354;15.754;2023-05-10T18:24:13;17.30;1.00
13375;DHT22;6756;51.354;15.754;2023-05-10T18:28:14;17.00;1.00
13375;DHT22;6756;51.354;15.754;2023-05-10T18:32:15;16.60;1.00
13375;DHT22;6756;51.354;15.754;2023-05-10T18:36:17;16.30;1.00
13375;DHT22;6756;51.354;15.754;2023-05-10T18:40:21;16.00;1.00
13375;DHT22;6756;51.354;15.754;2023-05-10T18:44:22;15.80;1.00
13375;DHT22;6756;51.354;15.754;2023-05-10T18:48:26;15.50;1.00
13375;DHT22;6756;51.354;15.754;2023-05-10T18:52:27;15.20;1.00
13375;DHT22;6756;51.354;15.754;2023-05-10T18:56:28;15.00;1.00
13375;DHT22;6756;51.354;15.754;2023-05-10T19:00:29;14.80;1.00
13375;DHT22;6756;51.354;15.754;2023-05-10T19:04:30;14.60;1.00
13375;DHT22;6756;51.354;15.754;2023-05-10T19:08:31;14.40;1.00
13375;DHT22;6756;51.354;15.754;2023-05-10T19:12:35;14.20;1.00
13375;DHT22;6756;51.354;15.754;2023-05-10T19:16:38;14.00;1.00
13375;DHT22;6756;51.354;15.754;2023-05-10T19:20:47;13.80;7.40
13375;DHT22;6756;51.354;15.754;2023-05-10T19:24:48;13.70;11.90
13375;DHT22;6756;51.354;15.754;2023-05-10T19:28:52;13.60;27.60
13375;DHT22;6756;51.354;15.754;2023-05-10T19:32:54;13.40;38.20
13375;DHT22;6756;51.354;15.754;2023-05-10T19:36:55;13.30;53.80
13375;DHT22;6756;51.354;15.754;2023-05-10T19:40:56;13.20;79.50
13375;DHT22;6756;51.354;15.754;2023-05-10T19:44:58;13.00;98.80
13375;DHT22;6756;51.354;15.754;2023-05-10T19:48:59;12.80;99.90
13375;DHT22;6756;51.354;15.754;2023-05-10T19:53:00;12.60;99.90
13375;DHT22;6756;51.354;15.754;2023-05-10T19:57:00;12.40;99.90
13375;DHT22;6756;51.354;15.754;2023-05-10T20:01:02;12.20;99.90
13375;DHT22;6756;51.354;15.754;2023-05-10T20:05:05;12.00;99.90
13375;DHT22;6756;51.354;15.754;2023-05-10T20:09:06;12.00;99.90
13375;DHT22;6756;51.354;15.754;2023-05-10T20:13:08;11.90;99.90
13375;DHT22;6756;51.354;15.754;2023-05-10T20:17:09;11.80;99.90
13375;DHT22;6756;51.354;15.754;2023-05-10T20:21:09;11.70;99.90
13375;DHT22;6756;51.354;15.754;2023-05-10T20:25:11;11.50;99.90
13375;DHT22;6756;51.354;15.754;2023-05-10T20:29:12;11.30;99.90
13375;DHT22;6756;51.354;15.754;2023-05-10T20:33:15;11.20;99.90
13375;DHT22;6756;51.354;15.754;2023-05-10T20:37:16;11.00;99.90
13375;DHT22;6756;51.354;15.754;2023-05-10T20:41:17;10.90;99.90
13375;DHT22;6756;51.354;15.754;2023-05-10T20:45:19;10.70;99.90
13375;DHT22;6756;51.354;15.754;2023-05-10T20:49:23;10.60;99.90
13375;DHT22;6756;51.354;15.754;2023-05-10T20:53:24;10.50;99.90
13375;DHT22;6756;51.354;15.754;2023-05-10T20:57:30;10.30;99.90
13375;DHT22;6756;51.354;15.754;2023-05-10T21:01:31;10.20;99.90
13375;DHT22;6756;51.354;15.754;2023-05-10T21:05:35;10.10;1.00
13375;DHT22;6756;51.354;15.754;2023-05-10T21:09:36;9.90;1.00
13375;DHT22;6756;51.354;15.754;2023-05-10T21:13:37;9.70;1.00
13375;DHT22;6756;51.354;15.754;2023-05-10T21:17:38;9.60;1.00
13375;DHT22;6756;51.354;15.754;2023-05-10T21:21:39;9.50;1.00
13375;DHT22;6756;51.354;15.754;2023-05-10T21:25:40;9.40;1.00
13375;DHT22;6756;51.354;15.754;2023-05-10T21:29:41;9.30;1.00
13375;DHT22;6756;51.354;15.754;2023-05-10T21:33:45;9.20;1.00
13375;DHT22;6756;51.354;15.754;2023-05-10T21:37:46;9.10;21.20
13375;DHT22;6756;51.354;15.754;2023-05-10T21:41:47;9.00;44.80
13375;DHT22;6756;51.354;15.754;2023-05-10T21:45:48;9.00;93.60
13375;DHT22;6756;51.354;15.754;2023-05-10T21:49:49;8.90;99.90
13375;DHT22;6756;51.354;15.754;2023-05-10T21:53:50;8.90;99.90
13375;DHT22;6756;51.354;15.754;2023-05-10T21:57:51;9.00;99.90
13375;DHT22;6756;51.354;15.754;2023-05-10T22:01:52;9.00;99.90
13375;DHT22;6756;51.354;15.754;2023-05-10T22:05:53;9.00;99.90
13375;DHT22;6756;51.354;15.754;2023-05-10T22:09:54;9.10;99.90
13375;DHT22;6756;51.354;15.754;2023-05-10T22:13:55;9.20;99.90
13375;DHT22;6756;51.354;15.754;2023-05-10T22:17:56;9.20;99.90
13375;DHT22;6756;51.354;15.754;2023-05-10T22:21:57;9.20;99.90
13375;DHT22;6756;51.354;15.754;2023-05-10T22:26:01;9.20;99.90
13375;DHT22;6756;51.354;15.754;2023-05-10T22:30:03;9.30;99.90
13375;DHT22;6756;51.354;15.754;2023-05-10T22:34:07;9.30;99.90
13375;DHT22;6756;51.354;15.754;2023-05-10T22:38:08;9.40;99.90
13375;DHT22;6756;51.354;15.754;2023-05-10T22:42:09;9.50;99.90
13375;DHT22;6756;51.354;15.754;2023-05-10T22:46:10;9.60;99.90
13375;DHT22;6756;51.354;15.754;2023-05-10T22:50:10;9.70;99.90
13375;DHT22;6756;51.354;15.754;2023-05-10T22:54:13;9.70;99.90
13375;DHT22;6756;51.354;15.754;2023-05-10T22:58:14;9.70;99.90
13375;DHT22;6756;51.354;15.754;2023-05-10T23:02:15;9.60;99.90
13375;DHT22;6756;51.354;15.754;2023-05-10T23:06:16;9.60;99.90
13375;DHT22;6756;51.354;15.754;2023-05-10T23:10:21;9.60;99.90
13375;DHT22;6756;51.354;15.754;2023-05-10T23:14:22;9.60;99.90
13375;DHT22;6756;51.354;15.754;2023-05-10T23:18:23;9.60;99.90
13375;DHT22;6756;51.354;15.754;2023-05-10T23:22:27;9.60;99.90
13375;DHT22;6756;51.354;15.754;2023-05-10T23:26:31;9.70;99.90
13375;DHT22;6756;51.354;15.754;2023-05-10T23:30:32;9.80;99.90
13375;DHT22;6756;51.354;15.754;2023-05-10T23:34:33;9.90;99.90
13375;DHT22;6756;51.354;15.754;2023-05-10T23:38:34;9.90;99.90
13375;DHT22;6756;51.354;15.754;2023-05-10T23:42:35;10.00;99.90
13375;DHT22;6756;51.354;15.754;2023-05-10T23:46:38;10.00;99.90
13375;DHT22;6756;51.354;15.754;2023-05-10T23:50:51;10.00;99.90
13375;DHT22;6756;51.354;15.754;2023-05-10T23:54:53;10.00;99.90
13375;DHT22;6756;51.354;15.754;2023-05-10T23:58:54;10.00;99.90
